createdAt,value
2022-07-26T00:02:18.600Z,10.13
2022-07-26T00:04:54.852Z,10.07
2022-07-26T00:07:27.456Z,9.00
2022-07-26T00:10:20.268Z,10.30
2022-07-26T00:12:51.724Z,9.33
2022-07-26T00:15:22.324Z,9.77
2022-07-26T00:17:54.843Z,9.63
2022-07-26T00:20:38.952Z,9.73
2022-07-26T00:23:33.160Z,9.53
2022-07-26T00:26:07.077Z,10.10
2022-07-26T00:28:41.078Z,9.40
2022-07-26T00:31:12.240Z,9.70
2022-07-26T00:33:48.437Z,9.97
2022-07-26T00:36:32.380Z,9.90
2022-07-26T00:39:08.657Z,8.90
2022-07-26T00:41:48.800Z,9.43
2022-07-26T00:44:28.682Z,9.80
2022-07-26T00:47:08.819Z,10.50
2022-07-26T00:49:41.186Z,9.90
2022-07-26T00:52:13.706Z,9.27
2022-07-26T00:54:57.802Z,10.60
2022-07-26T00:57:35.852Z,9.80
2022-07-26T01:00:20.769Z,9.70
2022-07-26T01:03:00.669Z,10.50
2022-07-26T01:05:35.655Z,9.20
2022-07-26T01:08:23.395Z,9.13
2022-07-26T01:11:01.821Z,9.60
2022-07-26T01:13:35.329Z,12.50
2022-07-26T01:16:11.171Z,7.77
2022-07-26T01:21:38.437Z,7.50
2022-07-26T01:24:10.294Z,8.87
2022-07-26T01:26:50.775Z,7.43
2022-07-26T01:29:22.071Z,7.43
2022-07-26T01:31:54.935Z,7.97
2022-07-26T01:34:26.802Z,6.73
2022-07-26T01:37:08.749Z,8.23
2022-07-26T01:39:40.492Z,6.67
2022-07-26T01:42:11.345Z,7.93
2022-07-26T01:44:44.033Z,7.10
2022-07-26T01:47:32.937Z,6.33
2022-07-26T01:50:17.759Z,7.27
2022-07-26T01:52:56.133Z,6.10
2022-07-26T01:55:39.340Z,5.97
2022-07-26T01:58:15.840Z,5.73
2022-07-26T02:00:55.395Z,5.80
2022-07-26T02:03:29.732Z,5.80
2022-07-26T02:06:06.787Z,5.50
2022-07-26T02:08:40.323Z,5.50
2022-07-26T02:11:12.182Z,5.63
2022-07-26T02:13:42.312Z,5.37
2022-07-26T02:16:27.266Z,4.77
2022-07-26T02:18:59.379Z,5.40
2022-07-26T02:21:33.929Z,5.93
2022-07-26T02:24:26.754Z,5.07
2022-07-26T02:27:06.948Z,5.70
2022-07-26T02:29:38.144Z,5.20
2022-07-26T02:32:11.169Z,5.50
2022-07-26T02:34:49.831Z,4.90
2022-07-26T02:37:43.519Z,5.30
2022-07-26T02:40:20.677Z,5.40
2022-07-26T02:43:00.697Z,5.53
2022-07-26T02:45:32.540Z,5.80
2022-07-26T02:48:13.401Z,5.10
2022-07-26T02:50:47.415Z,5.40
2022-07-26T02:53:19.479Z,5.07
2022-07-26T02:56:07.259Z,4.73
2022-07-26T02:58:39.641Z,4.47
2022-07-26T03:01:11.914Z,4.27
2022-07-26T03:03:50.913Z,3.90
2022-07-26T03:06:34.297Z,4.20
2022-07-26T03:09:18.487Z,4.70
2022-07-26T03:12:08.484Z,4.10
2022-07-26T03:14:39.202Z,4.47
2022-07-26T03:17:16.278Z,4.00
2022-07-26T03:20:01.894Z,4.57
2022-07-26T03:22:42.253Z,4.30
2022-07-26T03:25:16.859Z,4.07
2022-07-26T03:27:54.687Z,3.80
2022-07-26T03:30:31.062Z,3.67
2022-07-26T03:32:59.842Z,3.90
2022-07-26T03:35:44.740Z,3.87
2022-07-26T03:38:18.248Z,3.80
2022-07-26T03:40:59.675Z,3.50
2022-07-26T03:43:37.912Z,3.40
2022-07-26T03:46:08.111Z,3.77
2022-07-26T03:48:38.984Z,4.03
2022-07-26T03:51:15.486Z,3.90
2022-07-26T03:53:52.968Z,4.00
2022-07-26T03:56:34.517Z,3.50
2022-07-26T03:59:06.842Z,3.90
2022-07-26T04:01:37.013Z,4.00
2022-07-26T04:04:25.165Z,3.90
2022-07-26T04:07:07.655Z,4.03
2022-07-26T04:09:54.049Z,4.93
2022-07-26T04:12:31.919Z,4.60
2022-07-26T04:15:02.932Z,4.67
2022-07-26T04:17:50.334Z,4.60
2022-07-26T04:20:20.411Z,4.40
2022-07-26T04:22:55.995Z,5.13
2022-07-26T04:25:38.724Z,4.97
2022-07-26T04:28:16.607Z,4.50
2022-07-26T04:31:05.560Z,5.00
2022-07-26T04:33:47.026Z,4.43
2022-07-26T04:36:20.911Z,4.17
2022-07-26T04:38:58.975Z,4.33
2022-07-26T04:41:37.709Z,3.90
2022-07-26T04:44:16.401Z,4.00
2022-07-26T04:47:05.924Z,3.97
2022-07-26T04:49:36.539Z,4.07
2022-07-26T04:52:16.254Z,3.90
2022-07-26T04:54:49.297Z,3.90
2022-07-26T04:57:26.246Z,4.50
2022-07-26T05:00:21.192Z,4.10
2022-07-26T05:02:59.719Z,4.70
2022-07-26T05:05:40.437Z,4.27
2022-07-26T05:08:17.086Z,4.47
2022-07-26T05:10:59.691Z,4.20
2022-07-26T05:13:32.279Z,4.70
2022-07-26T05:16:11.894Z,4.13
2022-07-26T05:18:49.143Z,3.90
2022-07-26T05:21:22.368Z,4.50
2022-07-26T05:23:59.231Z,4.07
2022-07-26T05:26:40.405Z,4.73
2022-07-26T05:29:14.013Z,4.20
2022-07-26T05:31:48.137Z,4.33
2022-07-26T05:34:23.836Z,4.50
2022-07-26T05:37:05.607Z,4.73
2022-07-26T05:39:53.714Z,4.57
2022-07-26T05:42:29.207Z,4.63
2022-07-26T05:45:05.781Z,4.50
2022-07-26T05:47:37.933Z,5.10
2022-07-26T05:50:13.212Z,4.57
2022-07-26T05:52:42.331Z,4.67
2022-07-26T05:55:12.023Z,4.80
2022-07-26T05:57:49.686Z,4.60
2022-07-26T06:00:28.215Z,4.57
2022-07-26T06:03:24.445Z,3.97
2022-07-26T06:06:04.797Z,4.80
2022-07-26T06:08:39.646Z,5.50
2022-07-26T06:11:18.554Z,4.97
2022-07-26T06:13:59.565Z,8.23
2022-07-26T06:16:31.511Z,6.30
2022-07-26T06:19:05.243Z,5.23
2022-07-26T06:21:53.859Z,4.60
2022-07-26T06:24:33.340Z,4.40
2022-07-26T06:27:12.593Z,4.27
2022-07-26T06:29:52.795Z,4.63
2022-07-26T06:32:26.735Z,4.30
2022-07-26T06:34:59.628Z,5.00
2022-07-26T06:37:38.381Z,4.83
2022-07-26T06:40:14.986Z,4.43
2022-07-26T06:43:04.350Z,4.30
2022-07-26T06:45:35.433Z,4.97
2022-07-26T06:48:16.087Z,4.20
2022-07-26T06:51:00.364Z,3.93
2022-07-26T06:53:39.547Z,4.40
2022-07-26T06:56:10.804Z,4.10
2022-07-26T06:58:43.422Z,3.83
2022-07-26T07:01:51.441Z,3.53
2022-07-26T07:04:23.328Z,4.30
2022-07-26T07:07:06.064Z,4.13
2022-07-26T07:09:41.918Z,3.70
2022-07-26T07:12:15.494Z,3.27
2022-07-26T07:14:46.633Z,3.80
2022-07-26T07:17:26.567Z,4.00
2022-07-26T07:20:05.126Z,3.63
2022-07-26T07:22:42.749Z,3.60
2022-07-26T07:25:24.359Z,3.10
2022-07-26T07:28:03.518Z,3.53
2022-07-26T07:30:38.670Z,3.37
2022-07-26T07:33:22.731Z,3.90
2022-07-26T07:35:59.686Z,3.47
2022-07-26T07:38:42.698Z,3.30
2022-07-26T07:41:19.529Z,3.43
2022-07-26T07:43:55.516Z,3.13
2022-07-26T07:46:29.436Z,4.13
2022-07-26T07:49:11.514Z,3.87
2022-07-26T07:51:43.412Z,3.70
2022-07-26T07:54:16.594Z,3.40
2022-07-26T07:57:00.498Z,3.97
2022-07-26T07:59:39.364Z,3.47
2022-07-26T08:02:18.229Z,3.90
2022-07-26T08:04:48.111Z,4.33
2022-07-26T08:07:22.015Z,4.33
2022-07-26T08:10:19.286Z,4.60
2022-07-26T08:12:51.242Z,3.67
2022-07-26T08:15:24.983Z,3.80
2022-07-26T08:18:05.701Z,4.07
2022-07-26T08:20:39.577Z,3.77
2022-07-26T08:23:17.744Z,4.60
2022-07-26T08:26:06.348Z,4.37
2022-07-26T08:28:59.687Z,4.03
2022-07-26T08:31:57.015Z,3.53
2022-07-26T08:34:37.010Z,3.90
2022-07-26T08:37:17.405Z,3.40
2022-07-26T08:40:03.631Z,3.90
2022-07-26T08:42:38.735Z,3.50
2022-07-26T08:45:28.143Z,4.00
2022-07-26T08:48:17.351Z,4.10
2022-07-26T08:50:57.579Z,3.73
2022-07-26T08:53:35.002Z,4.17
2022-07-26T08:56:22.151Z,3.60
2022-07-26T08:58:52.775Z,4.30
2022-07-26T09:01:31.084Z,3.97
2022-07-26T09:04:32.418Z,4.37
2022-07-26T09:07:13.201Z,3.20
2022-07-26T09:10:05.089Z,3.83
2022-07-26T09:12:40.777Z,3.80
2022-07-26T09:15:20.832Z,3.73
2022-07-26T09:18:05.433Z,3.60
2022-07-26T09:20:49.788Z,3.97
2022-07-26T09:23:21.406Z,3.67
2022-07-26T09:25:58.597Z,3.70
2022-07-26T09:28:45.285Z,3.90
2022-07-26T09:31:30.234Z,3.63
2022-07-26T09:34:08.327Z,4.47
2022-07-26T09:39:59.843Z,4.43
2022-07-26T09:42:48.402Z,3.60
2022-07-26T09:45:33.675Z,3.40
2022-07-26T09:48:19.320Z,4.97
2022-07-26T09:50:59.301Z,5.20
2022-07-26T09:53:48.724Z,4.33
2022-07-26T09:56:53.879Z,4.50
2022-07-26T09:59:27.653Z,4.40
2022-07-26T10:02:07.828Z,3.70
2022-07-26T10:04:49.953Z,4.20
2022-07-26T10:07:47.833Z,4.10
2022-07-26T10:10:54.090Z,4.87
2022-07-26T10:13:24.689Z,4.37
2022-07-26T10:15:57.125Z,4.37
2022-07-26T10:18:57.118Z,4.30
2022-07-26T10:21:39.635Z,4.37
2022-07-26T10:24:38.510Z,4.90
2022-07-26T10:27:44.658Z,4.77
2022-07-26T10:30:35.371Z,4.60
2022-07-26T10:33:12.718Z,4.50
2022-07-26T10:35:45.557Z,4.83
2022-07-26T10:38:35.345Z,4.70
2022-07-26T10:41:20.057Z,5.50
2022-07-26T10:44:31.699Z,4.80
2022-07-26T10:47:24.464Z,4.37
2022-07-26T10:50:01.807Z,5.63
2022-07-26T10:53:03.478Z,5.47
2022-07-26T10:55:56.620Z,4.93
2022-07-26T10:58:46.075Z,5.20
2022-07-26T11:01:46.031Z,5.40
2022-07-26T11:04:30.223Z,5.73
2022-07-26T11:07:13.305Z,5.60
2022-07-26T11:09:47.519Z,5.30
2022-07-26T11:12:32.643Z,5.07
2022-07-26T11:15:23.223Z,5.30
2022-07-26T11:18:22.140Z,5.90
2022-07-26T11:21:15.878Z,5.70
2022-07-26T11:23:53.631Z,4.80
2022-07-26T11:26:35.055Z,5.37
2022-07-26T11:29:21.979Z,5.70
2022-07-26T11:32:14.523Z,5.70
2022-07-26T11:34:56.553Z,5.90
2022-07-26T11:37:51.948Z,5.63
2022-07-26T11:40:49.862Z,6.17
2022-07-26T11:43:31.090Z,5.10
2022-07-26T11:46:00.931Z,5.80
2022-07-26T11:48:47.687Z,5.23
2022-07-26T11:51:20.267Z,5.37
2022-07-26T11:54:06.908Z,5.27
2022-07-26T11:56:37.395Z,5.47
2022-07-26T11:59:09.352Z,5.63
2022-07-26T12:01:50.081Z,5.00
2022-07-26T12:04:33.432Z,5.77
2022-07-26T12:07:05.417Z,5.00
2022-07-26T12:09:45.317Z,4.80
2022-07-26T12:12:40.010Z,4.60
2022-07-26T12:15:14.041Z,4.93
2022-07-26T12:18:04.728Z,5.00
2022-07-26T12:21:07.133Z,4.50
2022-07-26T12:23:49.058Z,4.90
2022-07-26T12:26:30.030Z,4.47
2022-07-26T12:29:29.809Z,5.13
2022-07-26T12:32:15.079Z,4.40
2022-07-26T12:35:11.082Z,4.70
2022-07-26T12:37:56.541Z,4.13
2022-07-26T12:40:34.053Z,4.13
2022-07-26T12:43:06.589Z,4.33
2022-07-26T12:45:59.867Z,4.73
2022-07-26T12:48:39.806Z,5.00
2022-07-26T12:51:10.142Z,4.47
2022-07-26T12:53:50.842Z,5.00
2022-07-26T12:56:28.897Z,5.37
2022-07-26T12:59:02.399Z,5.80
2022-07-26T13:01:45.983Z,7.87
2022-07-26T13:04:27.354Z,7.80
2022-07-26T13:07:14.402Z,9.10
2022-07-26T13:10:31.232Z,12.87
2022-07-26T13:12:53.813Z,18.13
2022-07-26T13:15:36.398Z,17.70
2022-07-26T13:18:18.501Z,19.90
2022-07-26T13:20:50.776Z,19.20
2022-07-26T13:23:30.845Z,18.60
2022-07-26T13:26:10.238Z,21.27
2022-07-26T13:28:41.988Z,20.10
2022-07-26T13:31:18.929Z,23.10
2022-07-26T13:33:51.560Z,24.40
2022-07-26T13:36:27.074Z,22.07
2022-07-26T13:39:04.672Z,24.00
2022-07-26T13:41:42.420Z,27.03
2022-07-26T13:44:20.559Z,24.50
2022-07-26T13:46:56.737Z,25.37
2022-07-26T13:49:40.675Z,27.80
2022-07-26T13:52:16.516Z,25.70
2022-07-26T13:54:50.155Z,25.30
2022-07-26T13:57:48.084Z,24.17
2022-07-26T14:00:36.246Z,25.13
2022-07-26T14:03:05.382Z,22.40
2022-07-26T14:05:36.005Z,20.30
2022-07-26T14:08:18.237Z,19.87
2022-07-26T14:10:50.578Z,16.10
2022-07-26T14:13:27.768Z,17.20
2022-07-26T14:16:07.763Z,15.73
2022-07-26T14:18:40.632Z,15.23
2022-07-26T14:21:15.810Z,17.73
2022-07-26T14:26:46.140Z,17.33
2022-07-26T14:29:27.058Z,16.53
2022-07-26T14:32:11.350Z,15.70
2022-07-26T14:34:44.103Z,16.27
2022-07-26T14:37:42.483Z,17.90
2022-07-26T14:40:26.560Z,18.80
2022-07-26T14:43:01.690Z,20.27
2022-07-26T14:45:34.514Z,19.60
2022-07-26T14:48:10.632Z,19.10
2022-07-26T14:51:08.285Z,19.30
2022-07-26T14:53:45.778Z,18.50
2022-07-26T14:56:24.387Z,20.67
2022-07-26T14:59:08.938Z,20.73
2022-07-26T15:01:50.152Z,21.00
2022-07-26T15:04:23.981Z,21.40
2022-07-26T15:07:01.116Z,21.30
2022-07-26T15:09:34.671Z,23.53
2022-07-26T15:12:08.162Z,20.13
2022-07-26T15:14:43.696Z,21.00
2022-07-26T15:17:19.579Z,20.23
2022-07-26T15:19:53.565Z,22.73
2022-07-26T15:22:29.204Z,20.83
2022-07-26T15:24:59.333Z,19.93
2022-07-26T15:27:34.389Z,18.30
2022-07-26T15:30:13.734Z,17.50
2022-07-26T15:33:09.590Z,17.30
2022-07-26T15:35:53.756Z,19.23
2022-07-26T15:38:32.791Z,16.80
2022-07-26T15:41:11.173Z,17.17
2022-07-26T15:46:34.979Z,21.87
2022-07-26T15:49:10.005Z,20.37
2022-07-26T15:51:43.602Z,23.00
2022-07-26T15:54:23.253Z,23.90
2022-07-26T15:56:57.859Z,23.10
2022-07-26T15:59:38.362Z,23.33
2022-07-26T16:02:18.880Z,22.10
2022-07-26T16:04:58.376Z,22.10
2022-07-26T16:07:38.841Z,20.10
2022-07-26T16:10:17.907Z,16.27
2022-07-26T16:12:53.298Z,13.57
2022-07-26T16:15:41.535Z,14.40
2022-07-26T16:18:24.422Z,14.27
2022-07-26T16:21:05.393Z,13.37
2022-07-26T16:23:38.652Z,14.07
2022-07-26T16:26:14.696Z,13.77
2022-07-26T16:29:01.241Z,13.63
2022-07-26T16:31:36.943Z,13.53
2022-07-26T16:34:11.102Z,12.57
2022-07-26T16:36:59.190Z,12.60
2022-07-26T16:39:32.285Z,13.20
2022-07-26T16:42:07.652Z,13.33
2022-07-26T16:44:41.945Z,13.97
2022-07-26T16:47:15.128Z,12.57
2022-07-26T16:49:48.410Z,12.83
2022-07-26T16:52:38.973Z,12.70
2022-07-26T16:55:22.043Z,10.97
2022-07-26T16:58:01.384Z,10.73
2022-07-26T17:00:39.544Z,10.37
2022-07-26T17:03:16.108Z,10.00
2022-07-26T17:05:48.202Z,9.70
2022-07-26T17:08:29.889Z,10.30
2022-07-26T17:11:03.552Z,9.00
2022-07-26T17:13:40.742Z,9.53
2022-07-26T17:16:09.987Z,9.47
2022-07-26T17:18:47.831Z,9.27
2022-07-26T17:21:22.322Z,9.07
2022-07-26T17:24:15.691Z,8.67
2022-07-26T17:26:47.673Z,8.40
2022-07-26T17:29:22.705Z,8.97
2022-07-26T17:31:56.124Z,7.67
2022-07-26T17:34:27.694Z,8.53
2022-07-26T17:37:07.095Z,9.10
2022-07-26T17:39:54.326Z,7.57
2022-07-26T17:42:26.130Z,7.43
2022-07-26T17:45:04.702Z,7.40
2022-07-26T17:47:44.407Z,7.73
2022-07-26T17:50:36.392Z,7.83
2022-07-26T17:53:12.283Z,8.17
2022-07-26T17:55:47.521Z,8.00
2022-07-26T17:58:21.616Z,7.83
2022-07-26T18:00:57.934Z,8.57
2022-07-26T18:03:37.381Z,8.33
2022-07-26T18:06:28.237Z,7.97
2022-07-26T18:09:13.672Z,8.60
2022-07-26T18:11:49.308Z,9.10
2022-07-26T18:14:23.429Z,8.50
2022-07-26T18:16:57.073Z,8.63
2022-07-26T18:19:36.299Z,8.70
2022-07-26T18:22:15.103Z,8.57
2022-07-26T18:24:54.620Z,9.70
2022-07-26T18:27:38.891Z,10.00
2022-07-26T18:30:14.232Z,9.07
2022-07-26T18:32:52.022Z,9.60
2022-07-26T18:35:23.583Z,9.80
2022-07-26T18:38:02.032Z,9.20
2022-07-26T18:40:42.867Z,9.73
2022-07-26T18:43:26.175Z,8.97
2022-07-26T18:46:01.803Z,10.00
2022-07-26T18:48:43.002Z,10.70
2022-07-26T18:51:26.634Z,10.80
2022-07-26T18:54:01.239Z,10.77
2022-07-26T18:56:36.098Z,10.27
2022-07-26T18:59:08.023Z,9.07
2022-07-26T19:01:43.866Z,8.73
2022-07-26T19:04:18.838Z,9.10
2022-07-26T19:06:53.819Z,9.40
2022-07-26T19:09:27.866Z,8.67
2022-07-26T19:12:03.168Z,9.30
2022-07-26T19:14:45.003Z,9.07
2022-07-26T19:17:21.298Z,9.67
2022-07-26T19:19:59.410Z,9.47
2022-07-26T19:22:32.333Z,10.37
2022-07-26T19:25:24.073Z,9.63
2022-07-26T19:27:59.401Z,10.13
2022-07-26T19:30:35.908Z,9.73
2022-07-26T19:33:20.992Z,9.57
2022-07-26T19:35:56.081Z,10.43
2022-07-26T19:38:29.577Z,11.23
2022-07-26T19:41:15.705Z,9.97
2022-07-26T19:43:51.907Z,11.03
2022-07-26T19:46:34.472Z,11.20
2022-07-26T19:49:06.363Z,10.97
2022-07-26T19:51:40.000Z,10.80
2022-07-26T19:54:13.849Z,10.97
2022-07-26T19:56:56.729Z,9.50
2022-07-26T19:59:31.166Z,10.40
2022-07-26T20:02:10.322Z,10.40
2022-07-26T20:04:48.769Z,9.23
2022-07-26T20:07:23.504Z,9.93
2022-07-26T20:09:54.654Z,10.70
2022-07-26T20:12:29.063Z,9.40
2022-07-26T20:15:08.915Z,10.67
2022-07-26T20:17:43.444Z,9.77
2022-07-26T20:20:30.902Z,11.20
2022-07-26T20:23:00.667Z,10.60
2022-07-26T20:25:42.005Z,10.50
2022-07-26T20:28:22.734Z,11.10
2022-07-26T20:31:13.037Z,9.37
2022-07-26T20:33:49.311Z,9.63
2022-07-26T20:36:27.369Z,10.30
2022-07-26T20:39:04.423Z,8.60
2022-07-26T20:41:50.042Z,9.97
2022-07-26T20:44:28.446Z,7.77
2022-07-26T20:47:03.101Z,9.03
2022-07-26T20:49:40.625Z,9.20
2022-07-26T20:52:17.935Z,8.60
2022-07-26T20:54:52.596Z,8.60
2022-07-26T20:57:33.340Z,8.87
2022-07-26T21:00:11.121Z,7.90
2022-07-26T21:02:50.318Z,7.70
2022-07-26T21:05:28.644Z,6.93
2022-07-26T21:08:16.028Z,7.40
2022-07-26T21:11:00.867Z,7.27
2022-07-26T21:13:36.997Z,7.50
2022-07-26T21:16:21.855Z,6.97
2022-07-26T21:19:02.989Z,8.00
2022-07-26T21:21:44.371Z,6.83
2022-07-26T21:24:29.669Z,7.50
2022-07-26T21:27:01.589Z,7.00
2022-07-26T21:29:38.049Z,7.30
2022-07-26T21:32:14.319Z,6.80
2022-07-26T21:34:52.110Z,7.77
2022-07-26T21:37:31.974Z,7.17
2022-07-26T21:40:18.791Z,6.77
2022-07-26T21:42:57.799Z,7.57
2022-07-26T21:45:56.082Z,6.80
2022-07-26T21:48:34.509Z,6.80
2022-07-26T21:51:15.068Z,7.50
2022-07-26T21:54:04.565Z,6.90
2022-07-26T21:56:41.404Z,6.33
2022-07-26T21:59:15.281Z,6.33
2022-07-26T22:02:02.781Z,5.80
2022-07-26T22:04:39.076Z,5.60
2022-07-26T22:07:11.745Z,5.60
2022-07-26T22:09:58.141Z,4.83
2022-07-26T22:12:40.269Z,5.70
2022-07-26T22:15:15.043Z,6.00
2022-07-26T22:17:51.557Z,5.03
2022-07-26T22:20:40.583Z,5.97
2022-07-26T22:23:13.168Z,6.00
2022-07-26T22:25:48.208Z,5.17
2022-07-26T22:28:23.513Z,4.70
2022-07-26T22:30:57.873Z,5.30
2022-07-26T22:33:29.884Z,4.60
2022-07-26T22:36:02.901Z,5.37
2022-07-26T22:38:41.316Z,4.40
2022-07-26T22:41:14.488Z,4.63
2022-07-26T22:43:53.382Z,4.23
2022-07-26T22:46:27.544Z,4.50
2022-07-26T22:49:12.298Z,4.80
2022-07-26T22:51:56.840Z,4.40
2022-07-26T22:54:34.718Z,4.33
2022-07-26T22:57:07.892Z,4.97
2022-07-26T22:59:47.890Z,4.70
2022-07-26T23:02:36.702Z,4.00
2022-07-26T23:05:16.112Z,4.70
2022-07-26T23:07:52.286Z,4.37
2022-07-26T23:10:33.890Z,4.40
2022-07-26T23:13:15.314Z,5.10
2022-07-26T23:15:52.869Z,4.30
2022-07-26T23:18:29.040Z,4.40
2022-07-26T23:21:07.961Z,4.83
2022-07-26T23:23:38.689Z,4.57
2022-07-26T23:26:15.939Z,3.80
2022-07-26T23:28:56.391Z,4.60
2022-07-26T23:31:36.082Z,4.83
2022-07-26T23:34:07.486Z,4.30
2022-07-26T23:36:51.814Z,4.00
2022-07-26T23:39:32.841Z,3.80
2022-07-26T23:42:03.746Z,4.20
2022-07-26T23:44:37.076Z,3.60
2022-07-26T23:47:18.453Z,3.70
2022-07-26T23:49:54.455Z,3.57
2022-07-26T23:52:26.522Z,4.03
2022-07-26T23:54:58.958Z,3.90
2022-07-26T23:57:32.146Z,3.50
